createdAt,value
2022-11-28T00:00:36.633Z,91.44
2022-11-28T00:01:36.401Z,91.75
2022-11-28T00:02:36.470Z,91.85
2022-11-28T00:03:36.417Z,91.89
2022-11-28T00:04:36.561Z,92.00
2022-11-28T00:05:36.341Z,92.31
2022-11-28T00:06:36.339Z,92.61
2022-11-28T00:07:36.335Z,92.72
2022-11-28T00:08:36.309Z,92.93
2022-11-28T00:09:36.514Z,93.24
2022-11-28T00:10:36.490Z,93.54
2022-11-28T00:11:36.292Z,93.44
2022-11-28T00:12:36.272Z,93.54
2022-11-28T00:13:36.260Z,93.65
2022-11-28T00:14:36.238Z,93.75
2022-11-28T00:15:36.491Z,93.85
2022-11-28T00:16:36.289Z,93.96
2022-11-28T00:17:36.198Z,94.06
2022-11-28T00:18:36.212Z,94.17
2022-11-28T00:19:36.386Z,94.27
2022-11-28T00:20:36.174Z,94.06
2022-11-28T00:21:36.346Z,94.17
2022-11-28T00:22:36.127Z,94.17
2022-11-28T00:23:36.117Z,94.27
2022-11-28T00:24:36.107Z,94.37
2022-11-28T00:25:36.087Z,94.27
2022-11-28T00:26:36.296Z,94.17
2022-11-28T00:27:36.066Z,94.17
2022-11-28T00:28:36.057Z,94.17
2022-11-28T00:29:36.045Z,94.06
2022-11-28T00:30:36.034Z,94.17
2022-11-28T00:31:36.316Z,94.27
2022-11-28T00:32:36.011Z,94.27
2022-11-28T00:33:35.998Z,94.27
2022-11-28T00:34:35.974Z,94.37
2022-11-28T00:35:35.964Z,94.27
2022-11-28T00:36:35.972Z,94.27
2022-11-28T00:37:35.936Z,94.37
2022-11-28T00:38:35.935Z,94.06
2022-11-28T00:39:36.142Z,93.96
2022-11-28T00:40:35.897Z,94.06
2022-11-28T00:41:36.094Z,94.27
2022-11-28T00:42:35.874Z,94.27
2022-11-28T00:43:35.854Z,94.06
2022-11-28T00:44:35.846Z,94.06
2022-11-28T00:45:35.872Z,94.17
2022-11-28T00:46:35.830Z,94.27
2022-11-28T00:47:36.035Z,94.27
2022-11-28T00:48:35.793Z,94.27
2022-11-28T00:49:35.781Z,94.27
2022-11-28T00:50:35.762Z,94.17
2022-11-28T00:51:35.765Z,94.27
2022-11-28T00:52:35.944Z,94.37
2022-11-28T00:53:35.730Z,94.47
2022-11-28T00:54:35.931Z,94.68
2022-11-28T00:55:35.700Z,94.78
2022-11-28T00:56:35.700Z,94.89
2022-11-28T00:57:35.894Z,94.99
2022-11-28T00:58:35.669Z,95.09
2022-11-28T00:59:35.642Z,95.20
2022-11-28T01:00:35.639Z,95.30
2022-11-28T01:01:35.750Z,95.40
2022-11-28T01:02:35.640Z,95.50
2022-11-28T01:03:35.839Z,95.71
2022-11-28T01:04:35.591Z,95.71
2022-11-28T01:05:35.577Z,95.71
2022-11-28T01:06:35.781Z,95.71
2022-11-28T01:07:35.589Z,95.71
2022-11-28T01:08:35.717Z,95.71
2022-11-28T01:09:35.720Z,96.02
2022-11-28T01:10:35.513Z,95.92
2022-11-28T01:11:35.727Z,96.02
2022-11-28T01:12:35.709Z,96.02
2022-11-28T01:13:35.477Z,96.12
2022-11-28T01:14:35.649Z,96.23
2022-11-28T01:15:35.448Z,96.12
2022-11-28T01:16:35.493Z,96.12
2022-11-28T01:17:35.418Z,96.33
2022-11-28T01:18:36.066Z,96.44
2022-11-28T01:19:35.396Z,96.44
2022-11-28T01:20:35.376Z,96.64
2022-11-28T01:21:35.374Z,96.64
2022-11-28T01:22:35.358Z,96.64
2022-11-28T01:23:35.535Z,96.74
2022-11-28T01:24:35.324Z,96.84
2022-11-28T01:25:35.314Z,96.95
2022-11-28T01:26:35.507Z,97.05
2022-11-28T01:27:35.294Z,97.05
2022-11-28T01:28:35.494Z,97.16
2022-11-28T01:29:35.260Z,97.26
2022-11-28T01:30:35.251Z,97.36
2022-11-28T01:31:35.294Z,97.36
2022-11-28T01:32:35.225Z,97.47
2022-11-28T01:33:35.222Z,97.56
2022-11-28T01:34:35.422Z,97.56
2022-11-28T01:35:35.195Z,97.56
2022-11-28T01:36:35.170Z,97.67
2022-11-28T01:37:35.175Z,97.67
2022-11-28T01:38:35.142Z,97.77
2022-11-28T01:39:35.382Z,97.88
2022-11-28T01:40:35.124Z,97.88
2022-11-28T01:41:35.111Z,97.77
2022-11-28T01:42:35.328Z,97.77
2022-11-28T01:43:35.078Z,97.67
2022-11-28T01:44:35.270Z,97.77
2022-11-28T01:45:35.265Z,97.77
2022-11-28T01:46:35.303Z,97.77
2022-11-28T01:47:35.033Z,97.77
2022-11-28T01:48:35.015Z,97.77
2022-11-28T01:49:35.019Z,97.67
2022-11-28T01:50:34.995Z,97.67
2022-11-28T01:51:35.259Z,97.67
2022-11-28T01:52:34.966Z,97.67
2022-11-28T01:53:34.968Z,97.77
2022-11-28T01:54:35.148Z,97.77
2022-11-28T01:55:34.939Z,97.88
2022-11-28T01:56:34.918Z,98.08
2022-11-28T01:57:35.101Z,97.98
2022-11-28T01:58:34.881Z,97.98
2022-11-28T01:59:34.885Z,98.08
2022-11-28T02:00:34.979Z,98.08
2022-11-28T02:01:35.081Z,98.19
2022-11-28T02:02:35.164Z,98.29
2022-11-28T02:03:34.826Z,98.39
2022-11-28T02:04:34.806Z,98.39
2022-11-28T02:05:34.797Z,98.29
2022-11-28T02:06:34.779Z,98.29
2022-11-28T02:07:35.074Z,98.29
2022-11-28T02:08:34.768Z,98.19
2022-11-28T02:09:34.755Z,98.08
2022-11-28T02:10:34.937Z,98.13
2022-11-28T02:11:34.725Z,98.13
2022-11-28T02:12:34.712Z,97.92
2022-11-28T02:13:34.695Z,97.98
2022-11-28T02:14:34.675Z,97.92
2022-11-28T02:15:34.875Z,97.82
2022-11-28T02:16:34.747Z,97.61
2022-11-28T02:17:34.648Z,97.61
2022-11-28T02:18:34.845Z,97.61
2022-11-28T02:19:34.612Z,97.61
2022-11-28T02:20:34.783Z,97.41
2022-11-28T02:21:34.797Z,97.41
2022-11-28T02:22:34.583Z,97.30
2022-11-28T02:23:34.572Z,97.30
2022-11-28T02:24:34.546Z,97.20
2022-11-28T02:25:34.540Z,97.20
2022-11-28T02:26:34.733Z,97.30
2022-11-28T02:27:34.531Z,97.05
2022-11-28T02:28:34.701Z,97.09
2022-11-28T02:29:34.483Z,96.95
2022-11-28T02:30:34.480Z,96.89
2022-11-28T02:31:34.568Z,96.89
2022-11-28T02:32:34.668Z,96.84
2022-11-28T02:33:34.453Z,96.84
2022-11-28T02:34:34.420Z,96.79
2022-11-28T02:35:34.649Z,96.64
2022-11-28T02:36:34.409Z,96.64
2022-11-28T02:37:34.379Z,96.58
2022-11-28T02:38:34.379Z,96.37
2022-11-28T02:39:34.359Z,96.17
2022-11-28T02:40:34.560Z,95.92
2022-11-28T02:41:34.518Z,95.71
2022-11-28T02:42:34.370Z,95.50
2022-11-28T02:43:34.529Z,95.40
2022-11-28T02:44:34.289Z,95.40
2022-11-28T02:45:34.278Z,95.50
2022-11-28T02:46:34.504Z,95.61
2022-11-28T02:47:34.247Z,95.61
2022-11-28T02:48:34.250Z,95.61
2022-11-28T02:49:34.457Z,95.50
2022-11-28T02:50:34.218Z,95.50
2022-11-28T02:51:34.196Z,95.50
2022-11-28T02:52:34.188Z,95.61
2022-11-28T02:53:34.376Z,95.61
2022-11-28T02:54:34.167Z,95.30
2022-11-28T02:55:34.367Z,95.09
2022-11-28T02:56:34.139Z,95.09
2022-11-28T02:57:34.116Z,94.99
2022-11-28T02:58:34.331Z,94.89
2022-11-28T02:59:34.104Z,94.89
2022-11-28T03:00:34.131Z,94.68
2022-11-28T03:01:34.104Z,94.57
2022-11-28T03:02:34.311Z,94.78
2022-11-28T03:03:34.244Z,94.89
2022-11-28T03:04:34.064Z,94.78
2022-11-28T03:05:34.014Z,94.78
2022-11-28T03:06:34.225Z,94.37
2022-11-28T03:07:34.270Z,94.37
2022-11-28T03:08:33.980Z,94.57
2022-11-28T03:09:34.183Z,94.57
2022-11-28T03:10:33.953Z,94.57
2022-11-28T03:11:33.932Z,94.57
2022-11-28T03:12:33.934Z,94.47
2022-11-28T03:13:33.920Z,93.96
2022-11-28T03:14:55.112Z,93.85
2022-11-28T03:15:33.890Z,93.96
2022-11-28T03:16:33.895Z,93.85
2022-11-28T03:17:33.869Z,93.65
2022-11-28T03:18:34.072Z,93.54
2022-11-28T03:19:33.837Z,93.54
2022-11-28T03:20:33.820Z,93.54
2022-11-28T03:21:33.811Z,93.65
2022-11-28T03:22:33.791Z,93.65
2022-11-28T03:23:34.009Z,93.65
2022-11-28T03:24:33.770Z,93.75
2022-11-28T03:25:33.768Z,93.85
2022-11-28T03:26:33.748Z,93.34
2022-11-28T03:27:33.743Z,92.93
2022-11-28T03:28:33.921Z,92.72
2022-11-28T03:29:33.710Z,92.72
2022-11-28T03:30:33.887Z,92.10
2022-11-28T03:31:33.924Z,91.89
2022-11-28T03:32:33.658Z,91.89
2022-11-28T03:33:33.897Z,91.89
2022-11-28T03:34:33.636Z,91.79
2022-11-28T03:35:33.626Z,91.79
2022-11-28T03:36:33.615Z,92.10
2022-11-28T03:37:33.608Z,92.31
2022-11-28T03:38:33.778Z,92.21
2022-11-28T03:39:33.766Z,92.00
2022-11-28T03:40:33.563Z,92.41
2022-11-28T03:41:33.768Z,92.61
2022-11-28T03:42:33.525Z,92.82
2022-11-28T03:43:33.735Z,92.82
2022-11-28T03:44:33.744Z,92.51
2022-11-28T03:45:33.495Z,92.10
2022-11-28T03:46:33.522Z,92.31
2022-11-28T03:47:33.474Z,92.21
2022-11-28T03:48:33.662Z,92.21
2022-11-28T03:49:33.456Z,92.51
2022-11-28T03:50:33.433Z,92.41
2022-11-28T03:51:33.415Z,92.00
2022-11-28T03:52:33.404Z,91.89
2022-11-28T03:53:33.585Z,91.89
2022-11-28T03:54:33.376Z,92.00
2022-11-28T03:55:33.444Z,91.89
2022-11-28T03:56:33.552Z,91.79
2022-11-28T03:57:33.355Z,91.48
2022-11-28T03:58:33.522Z,91.48
2022-11-28T03:59:33.316Z,91.69
2022-11-28T04:00:33.303Z,91.48
2022-11-28T04:01:33.403Z,91.38
2022-11-28T04:02:33.315Z,91.07
2022-11-28T04:03:33.554Z,90.86
2022-11-28T04:04:33.241Z,90.97
2022-11-28T04:05:33.270Z,90.97
2022-11-28T04:06:33.221Z,91.28
2022-11-28T04:07:33.487Z,91.17
2022-11-28T04:08:33.396Z,91.07
2022-11-28T04:09:33.183Z,90.76
2022-11-28T04:10:33.169Z,90.76
2022-11-28T04:11:33.160Z,90.66
2022-11-28T04:12:33.149Z,90.55
2022-11-28T04:13:33.329Z,90.14
2022-11-28T04:14:33.343Z,90.04
2022-11-28T04:15:33.110Z,90.14
2022-11-28T04:16:33.326Z,90.04
2022-11-28T04:17:33.079Z,89.83
2022-11-28T04:18:33.069Z,89.83
2022-11-28T04:19:33.078Z,90.04
2022-11-28T04:20:33.049Z,90.14
2022-11-28T04:21:33.034Z,89.83
2022-11-28T04:22:33.024Z,89.83
2022-11-28T04:23:32.998Z,89.73
2022-11-28T04:24:33.197Z,89.01
2022-11-28T04:25:33.214Z,89.22
2022-11-28T04:26:33.206Z,89.32
2022-11-28T04:27:32.947Z,89.01
2022-11-28T04:28:32.947Z,88.80
2022-11-28T04:29:32.926Z,88.80
2022-11-28T04:30:32.915Z,88.90
2022-11-28T04:31:33.169Z,89.11
2022-11-28T04:32:32.906Z,89.01
2022-11-28T04:33:33.095Z,88.80
2022-11-28T04:34:32.865Z,89.01
2022-11-28T04:35:32.844Z,88.80
2022-11-28T04:36:33.032Z,89.01
2022-11-28T04:37:32.824Z,89.11
2022-11-28T04:38:32.814Z,89.01
2022-11-28T04:39:32.795Z,89.11
2022-11-28T04:40:32.795Z,89.42
2022-11-28T04:41:33.014Z,89.62
2022-11-28T04:42:32.770Z,89.73
2022-11-28T04:43:32.743Z,89.73
2022-11-28T04:44:32.734Z,89.62
2022-11-28T04:45:32.969Z,89.62
2022-11-28T04:46:32.711Z,89.73
2022-11-28T04:47:32.743Z,89.52
2022-11-28T04:48:34.387Z,89.22
2022-11-28T04:49:32.881Z,89.32
2022-11-28T04:50:32.665Z,89.62
2022-11-28T04:51:32.641Z,89.94
2022-11-28T04:52:32.661Z,89.94
2022-11-28T04:53:32.632Z,89.94
2022-11-28T04:54:32.621Z,89.62
2022-11-28T04:55:32.593Z,89.11
2022-11-28T04:56:32.581Z,89.22
2022-11-28T04:57:32.590Z,89.22
2022-11-28T04:58:32.563Z,88.80
2022-11-28T04:59:32.650Z,89.01
2022-11-28T05:00:32.785Z,89.11
2022-11-28T05:01:32.522Z,89.01
2022-11-28T05:02:32.541Z,89.01
2022-11-28T05:03:32.481Z,88.90
2022-11-28T05:04:32.499Z,88.56
2022-11-28T05:05:32.683Z,88.45
2022-11-28T05:06:32.447Z,88.35
2022-11-28T05:07:32.473Z,87.83
2022-11-28T05:08:32.429Z,87.93
2022-11-28T05:09:32.408Z,87.63
2022-11-28T05:10:32.416Z,87.93
2022-11-28T05:11:32.607Z,88.04
2022-11-28T05:12:32.378Z,87.63
2022-11-28T05:13:32.357Z,87.42
2022-11-28T05:14:32.377Z,87.42
2022-11-28T05:15:32.335Z,87.73
2022-11-28T05:16:32.361Z,87.32
2022-11-28T05:17:32.548Z,86.60
2022-11-28T05:18:32.298Z,86.70
2022-11-28T05:19:32.275Z,86.49
2022-11-28T05:20:32.276Z,86.39
2022-11-28T05:21:32.257Z,86.70
2022-11-28T05:22:32.235Z,87.01
2022-11-28T05:23:32.254Z,87.11
2022-11-28T05:24:32.580Z,87.32
2022-11-28T05:25:32.430Z,87.11
2022-11-28T05:26:32.196Z,86.60
2022-11-28T05:27:32.174Z,86.70
2022-11-28T05:28:32.173Z,86.39
2022-11-28T05:29:32.154Z,86.80
2022-11-28T05:30:32.433Z,87.01
2022-11-28T05:31:32.196Z,86.49
2022-11-28T05:32:32.117Z,86.49
2022-11-28T05:33:32.092Z,86.70
2022-11-28T05:34:32.095Z,86.90
2022-11-28T05:35:32.302Z,86.80
2022-11-28T05:36:32.071Z,87.01
2022-11-28T05:37:32.253Z,87.21
2022-11-28T05:38:32.045Z,87.11
2022-11-28T05:39:32.011Z,87.01
2022-11-28T05:40:32.023Z,87.01
2022-11-28T05:41:32.205Z,87.11
2022-11-28T05:42:31.982Z,86.90
2022-11-28T05:43:31.963Z,86.90
2022-11-28T05:44:31.962Z,86.60
2022-11-28T05:45:32.006Z,86.18
2022-11-28T05:46:32.146Z,86.39
2022-11-28T05:47:31.920Z,86.60
2022-11-28T05:48:31.907Z,86.39
2022-11-28T05:49:31.900Z,86.29
2022-11-28T05:50:35.708Z,86.49
2022-11-28T05:51:33.078Z,86.49
2022-11-28T05:52:32.085Z,86.90
2022-11-28T05:53:31.838Z,86.80
2022-11-28T05:54:31.838Z,86.80
2022-11-28T05:55:31.820Z,86.80
2022-11-28T05:56:32.020Z,86.90
2022-11-28T05:57:31.786Z,86.70
2022-11-28T05:58:31.779Z,86.80
2022-11-28T05:59:32.009Z,87.01
2022-11-28T06:00:31.767Z,87.01
2022-11-28T06:01:31.746Z,87.01
2022-11-28T06:02:31.847Z,86.80
2022-11-28T06:03:31.718Z,87.01
2022-11-28T06:04:31.937Z,86.90
2022-11-28T06:05:46.178Z,87.11
2022-11-28T06:06:32.688Z,87.32
2022-11-28T06:07:31.702Z,87.63
2022-11-28T06:08:31.647Z,87.93
2022-11-28T06:09:31.638Z,88.08
2022-11-28T06:10:31.626Z,88.18
2022-11-28T06:11:31.604Z,88.18
2022-11-28T06:12:31.625Z,88.29
2022-11-28T06:13:31.585Z,88.29
2022-11-28T06:14:31.574Z,88.18
2022-11-28T06:15:34.940Z,88.18
2022-11-28T06:16:32.583Z,88.39
2022-11-28T06:17:31.756Z,88.29
2022-11-28T06:18:31.533Z,88.18
2022-11-28T06:19:31.703Z,88.08
2022-11-28T06:20:31.501Z,88.08
2022-11-28T06:21:31.503Z,87.83
2022-11-28T06:22:31.661Z,87.98
2022-11-28T06:23:31.443Z,87.93
2022-11-28T06:24:31.567Z,87.73
2022-11-28T06:25:31.433Z,87.63
2022-11-28T06:26:31.412Z,87.42
2022-11-28T06:27:31.422Z,87.32
2022-11-28T06:28:31.394Z,87.21
2022-11-28T06:29:31.593Z,87.32
2022-11-28T06:30:31.472Z,87.52
2022-11-28T06:31:31.425Z,87.52
2022-11-28T06:32:31.333Z,87.21
2022-11-28T06:33:31.322Z,87.01
2022-11-28T06:34:31.541Z,87.11
2022-11-28T06:35:32.032Z,86.80
2022-11-28T06:36:31.310Z,86.90
2022-11-28T06:37:31.282Z,86.60
2022-11-28T06:38:31.268Z,86.70
2022-11-28T06:39:31.473Z,86.80
2022-11-28T06:40:31.240Z,86.70
2022-11-28T06:41:31.221Z,86.49
2022-11-28T06:42:31.223Z,86.49
2022-11-28T06:43:31.197Z,86.60
2022-11-28T06:44:31.411Z,86.39
2022-11-28T06:45:31.226Z,86.49
2022-11-28T06:46:31.406Z,86.29
2022-11-28T06:47:31.148Z,86.49
2022-11-28T06:48:31.130Z,86.60
2022-11-28T06:49:31.117Z,86.49
2022-11-28T06:50:31.109Z,86.70
2022-11-28T06:51:31.296Z,86.90
2022-11-28T06:52:31.068Z,87.05
2022-11-28T06:53:31.738Z,86.84
2022-11-28T06:54:31.256Z,86.94
2022-11-28T06:55:31.046Z,87.05
2022-11-28T06:56:31.045Z,86.63
2022-11-28T06:57:31.013Z,86.74
2022-11-28T06:58:31.003Z,86.63
2022-11-28T06:59:31.016Z,86.74
2022-11-28T07:00:30.985Z,86.94
2022-11-28T07:01:31.034Z,86.74
2022-11-28T07:02:30.999Z,86.53
2022-11-28T07:03:30.937Z,86.74
2022-11-28T07:04:31.094Z,86.94
2022-11-28T07:05:30.915Z,86.74
2022-11-28T07:06:30.935Z,86.63
2022-11-28T07:07:31.120Z,86.53
2022-11-28T07:08:30.875Z,86.12
2022-11-28T07:09:31.093Z,86.12
2022-11-28T07:10:31.061Z,86.29
2022-11-28T07:11:30.832Z,85.91
2022-11-28T07:12:30.813Z,85.77
2022-11-28T07:13:30.805Z,85.15
2022-11-28T07:14:30.802Z,85.67
2022-11-28T07:15:30.801Z,85.97
2022-11-28T07:16:30.815Z,86.02
2022-11-28T07:17:30.751Z,85.97
2022-11-28T07:18:30.743Z,86.12
2022-11-28T07:19:30.960Z,85.91
2022-11-28T07:20:30.713Z,86.02
2022-11-28T07:21:30.900Z,85.71
2022-11-28T07:22:30.690Z,85.57
2022-11-28T07:23:30.670Z,85.50
2022-11-28T07:24:30.890Z,85.71
2022-11-28T07:25:30.649Z,85.97
2022-11-28T07:26:30.661Z,86.12
2022-11-28T07:27:30.620Z,85.91
2022-11-28T07:28:30.612Z,86.12
2022-11-28T07:29:30.883Z,86.32
2022-11-28T07:30:30.581Z,86.32
2022-11-28T07:31:30.645Z,86.32
2022-11-28T07:32:30.559Z,86.12
2022-11-28T07:33:30.539Z,85.81
2022-11-28T07:34:30.758Z,85.60
2022-11-28T07:35:30.517Z,85.91
2022-11-28T07:36:30.518Z,85.91
2022-11-28T07:37:30.697Z,86.32
2022-11-28T07:38:30.487Z,86.12
2022-11-28T07:39:30.480Z,85.91
2022-11-28T07:40:30.685Z,85.81
2022-11-28T07:41:30.463Z,85.71
2022-11-28T07:42:30.635Z,85.71
2022-11-28T07:43:30.416Z,85.67
2022-11-28T07:44:30.406Z,85.77
2022-11-28T07:45:47.396Z,85.67
2022-11-28T07:46:31.439Z,85.91
2022-11-28T07:47:30.386Z,85.97
2022-11-28T07:48:30.366Z,86.18
2022-11-28T07:49:30.334Z,85.87
2022-11-28T07:50:30.566Z,85.81
2022-11-28T07:51:30.306Z,85.25
2022-11-28T07:52:30.297Z,85.67
2022-11-28T07:53:30.497Z,85.77
2022-11-28T07:54:30.633Z,85.36
2022-11-28T07:55:30.254Z,85.36
2022-11-28T07:56:50.076Z,85.15
2022-11-28T07:57:31.443Z,85.15
2022-11-28T07:58:30.233Z,85.15
2022-11-28T07:59:30.217Z,85.15
2022-11-28T08:00:30.204Z,84.94
2022-11-28T08:01:30.402Z,84.94
2022-11-28T08:02:30.222Z,85.36
2022-11-28T08:03:30.162Z,85.05
2022-11-28T08:04:30.200Z,85.05
2022-11-28T08:05:30.123Z,85.05
2022-11-28T08:06:30.121Z,85.05
2022-11-28T08:07:30.364Z,85.05
2022-11-28T08:08:30.311Z,84.84
2022-11-28T08:09:30.079Z,85.15
2022-11-28T08:10:30.271Z,85.15
2022-11-28T08:11:30.050Z,85.15
2022-11-28T08:12:30.041Z,84.84
2022-11-28T08:13:30.021Z,85.15
2022-11-28T08:14:30.049Z,85.46
2022-11-28T08:15:30.003Z,85.36
2022-11-28T08:16:30.069Z,85.46
2022-11-28T08:17:29.980Z,85.67
2022-11-28T08:18:29.988Z,85.67
2022-11-28T08:20:17.324Z,85.36
2022-11-28T08:20:30.928Z,85.77
2022-11-28T08:21:29.928Z,85.57
2022-11-28T08:22:30.210Z,85.67
2022-11-28T08:23:29.896Z,85.77
2022-11-28T08:24:29.891Z,85.87
2022-11-28T08:25:29.878Z,85.77
2022-11-28T08:26:31.002Z,85.57
2022-11-28T08:27:29.840Z,85.57
2022-11-28T08:28:29.858Z,85.77
2022-11-28T08:29:29.817Z,85.97
2022-11-28T08:30:30.062Z,86.08
2022-11-28T08:31:29.870Z,85.77
2022-11-28T08:32:29.785Z,85.97
2022-11-28T08:33:30.005Z,85.97
2022-11-28T08:34:29.765Z,86.18
2022-11-28T08:35:29.744Z,86.08
2022-11-28T08:36:29.845Z,86.18
2022-11-28T08:37:29.714Z,86.29
2022-11-28T08:38:29.906Z,86.60
2022-11-28T08:39:29.687Z,86.49
2022-11-28T08:40:29.684Z,86.60
2022-11-28T08:41:29.664Z,86.70
2022-11-28T08:42:29.876Z,86.80
2022-11-28T08:43:29.634Z,86.90
2022-11-28T08:44:30.789Z,87.32
2022-11-28T08:45:29.677Z,87.42
2022-11-28T08:46:29.657Z,87.42
2022-11-28T08:47:29.795Z,87.42
2022-11-28T08:48:29.582Z,87.32
2022-11-28T08:49:29.562Z,87.48
2022-11-28T08:50:29.551Z,87.73
2022-11-28T08:51:29.540Z,87.69
2022-11-28T08:52:29.754Z,87.69
2022-11-28T08:53:29.713Z,87.48
2022-11-28T08:54:29.722Z,87.59
2022-11-28T08:55:32.074Z,87.59
2022-11-28T08:56:29.479Z,87.69
2022-11-28T08:57:29.451Z,87.59
2022-11-28T08:58:29.671Z,87.69
2022-11-28T08:59:29.439Z,87.79
2022-11-28T09:00:29.422Z,87.90
2022-11-28T09:01:29.468Z,87.90
2022-11-28T09:02:29.600Z,87.79
2022-11-28T09:03:29.426Z,87.69
2022-11-28T09:04:29.400Z,87.69
2022-11-28T09:05:29.349Z,87.79
2022-11-28T09:06:29.345Z,87.79
2022-11-28T09:07:29.411Z,87.90
2022-11-28T09:08:29.319Z,87.79
2022-11-28T09:09:32.743Z,87.79
2022-11-28T09:10:29.509Z,87.69
2022-11-28T09:11:29.281Z,87.90
2022-11-28T09:12:29.268Z,88.10
2022-11-28T09:13:29.247Z,88.10
2022-11-28T09:14:29.437Z,88.20
2022-11-28T09:15:29.226Z,88.31
2022-11-28T09:16:29.303Z,88.51
2022-11-28T09:17:29.196Z,88.51
2022-11-28T09:18:29.195Z,88.51
2022-11-28T09:19:29.408Z,88.51
2022-11-28T09:20:29.169Z,88.41
2022-11-28T09:21:29.336Z,88.31
2022-11-28T09:22:29.135Z,88.41
2022-11-28T09:23:29.120Z,88.51
2022-11-28T09:24:29.145Z,88.62
2022-11-28T09:25:29.096Z,88.20
2022-11-28T09:26:29.085Z,88.51
2022-11-28T09:27:29.096Z,88.68
2022-11-28T09:28:29.053Z,88.68
2022-11-28T09:29:29.054Z,88.37
2022-11-28T09:30:29.281Z,88.37
2022-11-28T09:31:29.079Z,88.47
2022-11-28T09:32:29.011Z,88.57
2022-11-28T09:33:28.988Z,88.57
2022-11-28T09:34:28.989Z,88.68
2022-11-28T09:35:29.176Z,88.89
2022-11-28T09:36:28.953Z,88.78
2022-11-28T09:37:28.943Z,88.78
2022-11-28T09:38:28.937Z,88.57
2022-11-28T09:39:39.584Z,88.57
2022-11-28T09:40:30.121Z,88.68
2022-11-28T09:41:29.113Z,88.47
2022-11-28T09:42:28.881Z,88.47
2022-11-28T09:43:28.860Z,88.68
2022-11-28T09:44:28.851Z,88.68
2022-11-28T09:45:28.831Z,88.68
2022-11-28T09:46:28.930Z,88.78
2022-11-28T09:47:29.000Z,88.84
2022-11-28T09:48:29.032Z,89.05
2022-11-28T09:49:28.779Z,89.05
2022-11-28T09:50:28.779Z,89.15
2022-11-28T09:51:28.757Z,88.95
2022-11-28T09:52:28.832Z,88.84
2022-11-28T09:53:28.752Z,88.84
2022-11-28T09:54:28.721Z,89.05
2022-11-28T09:55:28.913Z,89.25
2022-11-28T09:56:28.698Z,89.05
2022-11-28T09:57:28.687Z,89.15
2022-11-28T09:58:28.678Z,89.25
2022-11-28T09:59:28.659Z,89.46
2022-11-28T10:00:28.847Z,89.36
2022-11-28T10:01:28.657Z,89.25
2022-11-28T10:02:28.627Z,89.05
2022-11-28T10:03:28.835Z,89.15
2022-11-28T10:04:28.662Z,88.95
2022-11-28T10:05:28.597Z,89.15
2022-11-28T10:06:28.597Z,89.15
2022-11-28T10:07:28.589Z,89.15
2022-11-28T10:08:28.779Z,89.05
2022-11-28T10:09:28.745Z,88.95
2022-11-28T10:10:28.517Z,89.15
2022-11-28T10:11:28.496Z,89.05
2022-11-28T10:12:28.485Z,88.84
2022-11-28T10:13:36.553Z,88.95
2022-11-28T10:14:29.674Z,89.05
2022-11-28T10:15:28.454Z,89.05
2022-11-28T10:16:28.485Z,89.05
2022-11-28T10:17:28.433Z,88.74
2022-11-28T10:18:28.654Z,88.84
2022-11-28T10:20:29.384Z,88.84
2022-11-28T10:21:28.372Z,89.05
2022-11-28T10:22:28.353Z,89.22
2022-11-28T10:23:28.353Z,89.42
2022-11-28T10:24:28.346Z,89.52
2022-11-28T10:25:28.313Z,89.31
2022-11-28T10:26:28.301Z,89.31
2022-11-28T10:27:28.292Z,89.22
2022-11-28T10:28:28.470Z,89.73
2022-11-28T10:29:28.270Z,89.73
2022-11-28T10:30:28.251Z,89.73
2022-11-28T10:31:28.310Z,89.62
2022-11-28T10:32:28.470Z,89.77
2022-11-28T10:33:28.220Z,89.83
2022-11-28T10:34:28.201Z,90.03
2022-11-28T10:35:28.840Z,90.14
2022-11-28T10:36:28.200Z,90.34
2022-11-28T10:37:28.160Z,90.24
2022-11-28T10:38:28.143Z,90.45
2022-11-28T10:39:28.140Z,90.55
2022-11-28T10:40:28.125Z,90.75
2022-11-28T10:41:28.329Z,90.75
2022-11-28T10:42:28.109Z,90.66
2022-11-28T10:43:28.088Z,90.55
2022-11-28T10:44:28.098Z,90.66
2022-11-28T10:45:28.058Z,90.66
2022-11-28T10:46:28.143Z,90.66
2022-11-28T10:47:28.268Z,90.49
2022-11-28T10:48:43.254Z,90.66
2022-11-28T10:49:29.015Z,90.86
2022-11-28T10:50:32.153Z,90.96
2022-11-28T10:51:28.195Z,91.17
2022-11-28T10:52:27.965Z,91.27
2022-11-28T10:53:27.961Z,91.17
2022-11-28T10:54:27.937Z,90.96
2022-11-28T10:55:27.957Z,90.96
2022-11-28T10:56:27.918Z,91.06
2022-11-28T10:57:28.145Z,91.27
2022-11-28T10:58:27.895Z,90.96
2022-11-28T10:59:27.886Z,90.96
2022-11-28T11:00:27.864Z,91.27
2022-11-28T11:01:27.877Z,91.58
2022-11-28T11:02:28.065Z,91.68
2022-11-28T11:03:27.824Z,91.27
2022-11-28T11:04:27.875Z,91.27
2022-11-28T11:05:27.884Z,91.27
2022-11-28T11:06:40.867Z,91.27
2022-11-28T11:07:29.940Z,91.17
2022-11-28T11:08:27.920Z,91.47
2022-11-28T11:09:27.834Z,91.38
2022-11-28T11:10:27.767Z,91.47
2022-11-28T11:11:27.726Z,91.58
2022-11-28T11:12:27.712Z,91.68
2022-11-28T11:13:27.912Z,91.58
2022-11-28T11:14:27.693Z,91.68
2022-11-28T11:15:27.675Z,91.74
2022-11-28T11:16:27.712Z,91.95
2022-11-28T11:17:32.630Z,92.36
2022-11-28T11:18:28.860Z,92.25
2022-11-28T11:19:27.613Z,92.25
2022-11-28T11:20:27.610Z,92.16
2022-11-28T11:21:27.590Z,92.05
2022-11-28T11:22:27.580Z,92.25
2022-11-28T11:23:27.771Z,92.36
2022-11-28T11:24:27.583Z,92.46
2022-11-28T11:25:27.541Z,92.46
2022-11-28T11:26:27.528Z,92.57
2022-11-28T11:27:27.718Z,92.67
2022-11-28T11:28:27.530Z,92.87
2022-11-28T11:29:27.493Z,93.39
2022-11-28T11:30:27.504Z,93.18
2022-11-28T11:31:27.521Z,93.39
2022-11-28T11:32:27.462Z,93.49
2022-11-28T11:33:27.617Z,93.39
2022-11-28T11:34:27.428Z,93.33
2022-11-28T11:35:27.408Z,93.39
2022-11-28T11:36:27.397Z,93.49
2022-11-28T11:37:27.619Z,93.59
2022-11-28T11:38:27.380Z,93.80
2022-11-28T11:39:27.359Z,93.80
2022-11-28T11:40:27.361Z,93.90
2022-11-28T11:41:27.335Z,93.90
2022-11-28T11:42:27.527Z,93.90
2022-11-28T11:43:27.308Z,94.11
2022-11-28T11:44:27.337Z,94.11
2022-11-28T11:45:27.276Z,94.11
2022-11-28T11:46:27.346Z,94.01
2022-11-28T11:47:27.497Z,94.21
2022-11-28T11:48:27.248Z,94.31
2022-11-28T11:49:27.225Z,94.42
2022-11-28T11:50:27.224Z,94.52
2022-11-28T11:51:27.405Z,94.52
2022-11-28T11:52:27.194Z,94.42
2022-11-28T11:53:27.176Z,94.31
2022-11-28T11:54:27.193Z,94.52
2022-11-28T11:55:27.165Z,94.42
2022-11-28T11:56:27.142Z,94.42
2022-11-28T11:57:34.823Z,94.42
2022-11-28T11:58:28.115Z,94.42
2022-11-28T11:59:27.094Z,94.62
2022-11-28T12:00:27.305Z,94.73
2022-11-28T12:01:27.073Z,94.73
2022-11-28T12:02:27.127Z,94.83
2022-11-28T12:03:27.173Z,94.93
2022-11-28T12:05:28.056Z,94.93
2022-11-28T12:06:27.012Z,94.93
2022-11-28T12:07:27.050Z,95.03
2022-11-28T12:08:26.982Z,95.03
2022-11-28T12:09:26.976Z,95.03
2022-11-28T12:10:26.974Z,95.24
2022-11-28T12:11:27.162Z,95.34
2022-11-28T12:12:26.938Z,95.24
2022-11-28T12:13:26.941Z,95.14
2022-11-28T12:14:26.914Z,95.24
2022-11-28T12:15:26.903Z,95.34
2022-11-28T12:16:26.961Z,95.14
2022-11-28T12:17:47.705Z,95.24
2022-11-28T12:18:28.067Z,95.24
2022-11-28T12:19:26.847Z,95.24
2022-11-28T12:20:26.828Z,95.34
2022-11-28T12:21:26.808Z,95.45
2022-11-28T12:22:26.834Z,95.65
2022-11-28T12:23:26.804Z,95.55
2022-11-28T12:24:26.789Z,95.34
2022-11-28T12:25:26.767Z,95.34
2022-11-28T12:26:26.949Z,95.24
2022-11-28T12:27:26.737Z,95.14
2022-11-28T12:28:26.937Z,95.08
2022-11-28T12:29:26.720Z,95.18
2022-11-28T12:30:26.710Z,95.18
2022-11-28T12:31:26.752Z,95.08
2022-11-28T12:32:26.709Z,95.18
2022-11-28T12:33:26.656Z,95.39
2022-11-28T12:34:26.647Z,95.39
2022-11-28T12:35:26.626Z,95.39
2022-11-28T12:36:26.647Z,95.49
2022-11-28T12:37:41.978Z,95.49
2022-11-28T12:38:27.607Z,95.39
2022-11-28T12:39:26.586Z,95.49
2022-11-28T12:40:26.567Z,95.70
2022-11-28T12:41:32.220Z,96.00
2022-11-28T12:42:27.589Z,96.21
2022-11-28T12:43:26.747Z,96.21
2022-11-28T12:44:26.524Z,96.21
2022-11-28T12:45:26.527Z,96.31
2022-11-28T12:46:26.539Z,96.21
2022-11-28T12:47:26.704Z,96.00
2022-11-28T12:48:26.473Z,96.00
2022-11-28T12:49:26.452Z,96.11
2022-11-28T12:50:26.681Z,96.31
2022-11-28T12:51:26.434Z,96.31
2022-11-28T12:52:26.432Z,96.21
2022-11-28T12:53:26.421Z,96.31
2022-11-28T12:54:26.393Z,96.42